Motley, Alabama
Current Conditions -  °F | °C
As of 7:15 PM on Saturday 22 Nov 2014 (Local Time) from KLGC Reporting Station
Overcast Overcast  
Wind Chill: 62°   Ceiling: 3000
Heat Index: 62°   Visibility: 10mi
Dew Point: 43°   Wind: 7mph
Humidity: 49%   Direction: 120°ESE
Pressure: 30.22"   Gusts: NA
Location:  33.1661°N, 85.5111°W
Report Text: KLGC 230115Z AUTO 12006KT 10SM OVC030 17/06 A3022 RMK AO2 T01670060
Loading
Personal Weather Stations






























Interactive Weather Map New forecast layout! Learn more

10-Day Weather Forecast

Advertisements
Track Severe Weather on mobile